sensor_id;sensor_type;location;lat;lon;timestamp;P1;durP1;ratioP1;P2;durP2;ratioP2
22068;SDS011;13887;57.196;-2.100;2023-01-05T00:01:39;12.30;;;11.90;;
22068;SDS011;13887;57.196;-2.100;2023-01-05T00:04:06;11.73;;;11.33;;
22068;SDS011;13887;57.196;-2.100;2023-01-05T00:06:33;11.90;;;11.50;;
22068;SDS011;13887;57.196;-2.100;2023-01-05T00:09:03;11.87;;;11.47;;
22068;SDS011;13887;57.196;-2.100;2023-01-05T00:11:30;11.70;;;11.30;;
22068;SDS011;13887;57.196;-2.100;2023-01-05T00:14:17;12.20;;;11.80;;
22068;SDS011;13887;57.196;-2.100;2023-01-05T00:17:05;11.80;;;11.40;;
22068;SDS011;13887;57.196;-2.100;2023-01-05T00:19:53;12.00;;;11.60;;
22068;SDS011;13887;57.196;-2.100;2023-01-05T00:22:42;12.17;;;11.77;;
22068;SDS011;13887;57.196;-2.100;2023-01-05T00:25:18;12.00;;;11.60;;
22068;SDS011;13887;57.196;-2.100;2023-01-05T00:27:50;12.63;;;12.23;;
22068;SDS011;13887;57.196;-2.100;2023-01-05T00:30:20;11.90;;;11.50;;
22068;SDS011;13887;57.196;-2.100;2023-01-05T00:32:49;12.40;;;12.00;;
22068;SDS011;13887;57.196;-2.100;2023-01-05T00:35:16;11.53;;;11.13;;
22068;SDS011;13887;57.196;-2.100;2023-01-05T00:37:44;11.77;;;11.37;;
22068;SDS011;13887;57.196;-2.100;2023-01-05T00:40:13;11.73;;;11.33;;
22068;SDS011;13887;57.196;-2.100;2023-01-05T00:42:41;11.70;;;11.30;;
22068;SDS011;13887;57.196;-2.100;2023-01-05T00:45:10;11.80;;;11.40;;
22068;SDS011;13887;57.196;-2.100;2023-01-05T00:47:39;12.00;;;11.60;;
22068;SDS011;13887;57.196;-2.100;2023-01-05T00:50:06;12.23;;;11.83;;
22068;SDS011;13887;57.196;-2.100;2023-01-05T00:52:34;12.17;;;11.77;;
22068;SDS011;13887;57.196;-2.100;2023-01-05T00:55:01;12.47;;;12.07;;
22068;SDS011;13887;57.196;-2.100;2023-01-05T00:57:29;13.00;;;12.60;;
22068;SDS011;13887;57.196;-2.100;2023-01-05T00:59:56;12.33;;;11.93;;
22068;SDS011;13887;57.196;-2.100;2023-01-05T01:02:23;12.10;;;11.70;;
22068;SDS011;13887;57.196;-2.100;2023-01-05T01:04:50;12.13;;;11.73;;
22068;SDS011;13887;57.196;-2.100;2023-01-05T01:07:17;12.43;;;12.03;;
22068;SDS011;13887;57.196;-2.100;2023-01-05T01:09:43;12.67;;;12.27;;
22068;SDS011;13887;57.196;-2.100;2023-01-05T01:12:10;12.40;;;12.00;;
22068;SDS011;13887;57.196;-2.100;2023-01-05T01:14:37;12.83;;;12.43;;
22068;SDS011;13887;57.196;-2.100;2023-01-05T01:17:04;12.13;;;11.73;;
22068;SDS011;13887;57.196;-2.100;2023-01-05T01:19:32;12.07;;;11.67;;
22068;SDS011;13887;57.196;-2.100;2023-01-05T01:21:59;12.47;;;12.07;;
22068;SDS011;13887;57.196;-2.100;2023-01-05T01:24:27;12.63;;;12.23;;
22068;SDS011;13887;57.196;-2.100;2023-01-05T01:26:54;12.40;;;12.00;;
22068;SDS011;13887;57.196;-2.100;2023-01-05T01:29:22;12.77;;;12.37;;
22068;SDS011;13887;57.196;-2.100;2023-01-05T01:31:50;12.60;;;12.20;;
22068;SDS011;13887;57.196;-2.100;2023-01-05T01:34:18;12.10;;;11.70;;
22068;SDS011;13887;57.196;-2.100;2023-01-05T01:36:46;11.87;;;11.47;;
22068;SDS011;13887;57.196;-2.100;2023-01-05T01:39:14;12.33;;;11.93;;
22068;SDS011;13887;57.196;-2.100;2023-01-05T01:41:45;12.73;;;12.33;;
22068;SDS011;13887;57.196;-2.100;2023-01-05T01:47:38;12.17;;;11.77;;
22068;SDS011;13887;57.196;-2.100;2023-01-05T01:50:15;12.30;;;11.90;;
22068;SDS011;13887;57.196;-2.100;2023-01-05T01:52:46;12.03;;;11.63;;
22068;SDS011;13887;57.196;-2.100;2023-01-05T01:55:15;12.27;;;11.87;;
22068;SDS011;13887;57.196;-2.100;2023-01-05T01:57:43;12.80;;;12.40;;
22068;SDS011;13887;57.196;-2.100;2023-01-05T02:00:12;12.97;;;12.57;;
22068;SDS011;13887;57.196;-2.100;2023-01-05T02:02:44;13.33;;;12.83;;
22068;SDS011;13887;57.196;-2.100;2023-01-05T02:05:16;13.20;;;12.80;;
22068;SDS011;13887;57.196;-2.100;2023-01-05T02:07:46;12.40;;;12.00;;
22068;SDS011;13887;57.196;-2.100;2023-01-05T02:10:15;12.70;;;12.30;;
22068;SDS011;13887;57.196;-2.100;2023-01-05T02:18:55;12.40;;;12.00;;
22068;SDS011;13887;57.196;-2.100;2023-01-05T02:21:14;12.27;;;11.87;;
22068;SDS011;13887;57.196;-2.100;2023-01-05T02:35:12;12.50;;;12.10;;
22068;SDS011;13887;57.196;-2.100;2023-01-05T02:38:04;12.53;;;12.13;;
22068;SDS011;13887;57.196;-2.100;2023-01-05T02:40:41;12.20;;;11.80;;
22068;SDS011;13887;57.196;-2.100;2023-01-05T02:43:11;12.20;;;11.80;;
22068;SDS011;13887;57.196;-2.100;2023-01-05T02:45:40;12.50;;;12.10;;
22068;SDS011;13887;57.196;-2.100;2023-01-05T02:48:07;12.30;;;11.90;;
22068;SDS011;13887;57.196;-2.100;2023-01-05T02:50:41;12.03;;;11.63;;
22068;SDS011;13887;57.196;-2.100;2023-01-05T02:53:20;12.33;;;11.93;;
22068;SDS011;13887;57.196;-2.100;2023-01-05T02:55:52;12.40;;;12.00;;
22068;SDS011;13887;57.196;-2.100;2023-01-05T02:58:31;12.17;;;11.77;;
22068;SDS011;13887;57.196;-2.100;2023-01-05T03:01:08;11.90;;;11.50;;
22068;SDS011;13887;57.196;-2.100;2023-01-05T03:03:52;12.03;;;11.63;;
22068;SDS011;13887;57.196;-2.100;2023-01-05T03:06:32;12.03;;;11.63;;
22068;SDS011;13887;57.196;-2.100;2023-01-05T03:09:15;12.20;;;11.80;;
22068;SDS011;13887;57.196;-2.100;2023-01-05T03:11:57;11.97;;;11.57;;
22068;SDS011;13887;57.196;-2.100;2023-01-05T03:14:53;12.20;;;11.80;;
22068;SDS011;13887;57.196;-2.100;2023-01-05T03:17:35;12.20;;;11.80;;
22068;SDS011;13887;57.196;-2.100;2023-01-05T03:20:07;12.40;;;12.00;;
22068;SDS011;13887;57.196;-2.100;2023-01-05T03:22:37;12.00;;;11.60;;
22068;SDS011;13887;57.196;-2.100;2023-01-05T03:25:24;12.33;;;11.93;;
22068;SDS011;13887;57.196;-2.100;2023-01-05T03:28:13;12.30;;;11.90;;
22068;SDS011;13887;57.196;-2.100;2023-01-05T03:37:08;12.43;;;12.03;;
22068;SDS011;13887;57.196;-2.100;2023-01-05T03:39:40;11.90;;;11.50;;
22068;SDS011;13887;57.196;-2.100;2023-01-05T03:42:10;12.00;;;11.60;;
22068;SDS011;13887;57.196;-2.100;2023-01-05T03:44:39;12.10;;;11.70;;
22068;SDS011;13887;57.196;-2.100;2023-01-05T03:47:13;12.20;;;11.80;;
22068;SDS011;13887;57.196;-2.100;2023-01-05T03:49:41;11.97;;;11.57;;
22068;SDS011;13887;57.196;-2.100;2023-01-05T03:52:09;12.00;;;11.60;;
22068;SDS011;13887;57.196;-2.100;2023-01-05T03:54:39;11.83;;;11.43;;
22068;SDS011;13887;57.196;-2.100;2023-01-05T03:57:06;11.90;;;11.50;;
22068;SDS011;13887;57.196;-2.100;2023-01-05T03:59:33;12.20;;;11.80;;
22068;SDS011;13887;57.196;-2.100;2023-01-05T04:02:01;11.87;;;11.47;;
22068;SDS011;13887;57.196;-2.100;2023-01-05T04:04:30;12.33;;;11.93;;
22068;SDS011;13887;57.196;-2.100;2023-01-05T04:06:58;12.33;;;11.93;;
22068;SDS011;13887;57.196;-2.100;2023-01-05T04:09:26;12.70;;;12.30;;
22068;SDS011;13887;57.196;-2.100;2023-01-05T04:11:53;12.10;;;11.70;;
22068;SDS011;13887;57.196;-2.100;2023-01-05T04:14:20;12.77;;;12.37;;
22068;SDS011;13887;57.196;-2.100;2023-01-05T04:16:47;12.47;;;12.07;;
22068;SDS011;13887;57.196;-2.100;2023-01-05T04:19:20;12.63;;;12.23;;
22068;SDS011;13887;57.196;-2.100;2023-01-05T04:21:50;13.13;;;12.63;;
22068;SDS011;13887;57.196;-2.100;2023-01-05T04:24:19;13.37;;;12.87;;
22068;SDS011;13887;57.196;-2.100;2023-01-05T04:26:46;13.50;;;13.00;;
22068;SDS011;13887;57.196;-2.100;2023-01-05T04:29:15;13.70;;;13.20;;
22068;SDS011;13887;57.196;-2.100;2023-01-05T04:31:46;13.47;;;12.97;;
22068;SDS011;13887;57.196;-2.100;2023-01-05T04:34:13;13.67;;;13.17;;
22068;SDS011;13887;57.196;-2.100;2023-01-05T04:36:40;13.67;;;13.17;;
22068;SDS011;13887;57.196;-2.100;2023-01-05T04:39:12;14.03;;;13.53;;
22068;SDS011;13887;57.196;-2.100;2023-01-05T04:41:39;13.47;;;12.97;;
22068;SDS011;13887;57.196;-2.100;2023-01-05T04:44:07;13.97;;;13.47;;
22068;SDS011;13887;57.196;-2.100;2023-01-05T04:46:34;14.07;;;13.57;;
22068;SDS011;13887;57.196;-2.100;2023-01-05T04:49:02;13.47;;;12.97;;
22068;SDS011;13887;57.196;-2.100;2023-01-05T04:51:29;13.03;;;12.63;;
22068;SDS011;13887;57.196;-2.100;2023-01-05T04:53:56;13.67;;;13.17;;
22068;SDS011;13887;57.196;-2.100;2023-01-05T04:56:23;13.80;;;13.30;;
22068;SDS011;13887;57.196;-2.100;2023-01-05T04:58:50;13.90;;;13.40;;
22068;SDS011;13887;57.196;-2.100;2023-01-05T05:01:17;14.17;;;13.67;;
22068;SDS011;13887;57.196;-2.100;2023-01-05T05:03:49;14.20;;;13.70;;
22068;SDS011;13887;57.196;-2.100;2023-01-05T05:06:18;13.90;;;13.40;;
22068;SDS011;13887;57.196;-2.100;2023-01-05T05:08:47;13.70;;;13.20;;
22068;SDS011;13887;57.196;-2.100;2023-01-05T05:11:14;13.70;;;13.20;;
22068;SDS011;13887;57.196;-2.100;2023-01-05T05:13:44;14.30;;;13.80;;
22068;SDS011;13887;57.196;-2.100;2023-01-05T05:16:12;14.33;;;13.83;;
22068;SDS011;13887;57.196;-2.100;2023-01-05T05:18:41;14.00;;;13.50;;
22068;SDS011;13887;57.196;-2.100;2023-01-05T05:21:12;13.73;;;13.23;;
22068;SDS011;13887;57.196;-2.100;2023-01-05T05:23:39;13.37;;;12.87;;
22068;SDS011;13887;57.196;-2.100;2023-01-05T05:26:06;13.33;;;12.83;;
22068;SDS011;13887;57.196;-2.100;2023-01-05T05:28:33;13.80;;;13.30;;
22068;SDS011;13887;57.196;-2.100;2023-01-05T05:31:00;13.40;;;12.90;;
22068;SDS011;13887;57.196;-2.100;2023-01-05T05:33:27;13.90;;;13.40;;
22068;SDS011;13887;57.196;-2.100;2023-01-05T05:35:54;13.53;;;13.03;;
22068;SDS011;13887;57.196;-2.100;2023-01-05T05:38:21;13.80;;;13.30;;
22068;SDS011;13887;57.196;-2.100;2023-01-05T05:40:48;13.50;;;13.00;;
22068;SDS011;13887;57.196;-2.100;2023-01-05T05:43:15;13.83;;;13.33;;
22068;SDS011;13887;57.196;-2.100;2023-01-05T05:45:42;13.83;;;13.33;;
22068;SDS011;13887;57.196;-2.100;2023-01-05T05:48:16;14.03;;;13.53;;
22068;SDS011;13887;57.196;-2.100;2023-01-05T05:50:44;13.70;;;13.20;;
22068;SDS011;13887;57.196;-2.100;2023-01-05T05:53:11;13.80;;;13.30;;
22068;SDS011;13887;57.196;-2.100;2023-01-05T05:55:38;13.67;;;13.17;;
22068;SDS011;13887;57.196;-2.100;2023-01-05T05:58:05;13.50;;;13.00;;
22068;SDS011;13887;57.196;-2.100;2023-01-05T06:00:31;13.80;;;13.30;;
22068;SDS011;13887;57.196;-2.100;2023-01-05T06:02:58;14.07;;;13.57;;
22068;SDS011;13887;57.196;-2.100;2023-01-05T06:05:25;14.07;;;13.57;;
22068;SDS011;13887;57.196;-2.100;2023-01-05T06:07:52;14.00;;;13.50;;
22068;SDS011;13887;57.196;-2.100;2023-01-05T06:10:19;14.40;;;13.90;;
22068;SDS011;13887;57.196;-2.100;2023-01-05T06:12:46;14.30;;;13.80;;
22068;SDS011;13887;57.196;-2.100;2023-01-05T06:15:13;13.77;;;13.27;;
22068;SDS011;13887;57.196;-2.100;2023-01-05T06:17:40;13.90;;;13.40;;
22068;SDS011;13887;57.196;-2.100;2023-01-05T06:20:07;14.03;;;13.53;;
22068;SDS011;13887;57.196;-2.100;2023-01-05T06:22:35;14.00;;;13.50;;
22068;SDS011;13887;57.196;-2.100;2023-01-05T06:25:02;14.07;;;13.57;;
22068;SDS011;13887;57.196;-2.100;2023-01-05T06:27:30;13.77;;;13.27;;
22068;SDS011;13887;57.196;-2.100;2023-01-05T06:29:56;14.20;;;13.70;;
22068;SDS011;13887;57.196;-2.100;2023-01-05T06:32:23;13.70;;;13.20;;
22068;SDS011;13887;57.196;-2.100;2023-01-05T06:34:50;13.77;;;13.27;;
22068;SDS011;13887;57.196;-2.100;2023-01-05T06:37:17;13.33;;;12.83;;
22068;SDS011;13887;57.196;-2.100;2023-01-05T06:39:44;13.37;;;12.87;;
22068;SDS011;13887;57.196;-2.100;2023-01-05T06:42:11;13.87;;;13.37;;
22068;SDS011;13887;57.196;-2.100;2023-01-05T06:44:38;13.50;;;13.00;;
22068;SDS011;13887;57.196;-2.100;2023-01-05T06:47:05;13.80;;;13.30;;
22068;SDS011;13887;57.196;-2.100;2023-01-05T06:49:32;13.53;;;13.03;;
22068;SDS011;13887;57.196;-2.100;2023-01-05T06:51:58;13.80;;;13.30;;
22068;SDS011;13887;57.196;-2.100;2023-01-05T06:54:25;14.40;;;13.90;;
22068;SDS011;13887;57.196;-2.100;2023-01-05T06:56:52;13.80;;;13.30;;
22068;SDS011;13887;57.196;-2.100;2023-01-05T06:59:19;13.80;;;13.30;;
22068;SDS011;13887;57.196;-2.100;2023-01-05T07:01:46;13.83;;;13.33;;
22068;SDS011;13887;57.196;-2.100;2023-01-05T07:04:13;14.17;;;13.67;;
22068;SDS011;13887;57.196;-2.100;2023-01-05T07:06:40;14.20;;;13.70;;
22068;SDS011;13887;57.196;-2.100;2023-01-05T07:09:07;14.30;;;13.80;;
22068;SDS011;13887;57.196;-2.100;2023-01-05T07:11:34;13.80;;;13.30;;
22068;SDS011;13887;57.196;-2.100;2023-01-05T07:14:01;14.40;;;13.90;;
22068;SDS011;13887;57.196;-2.100;2023-01-05T07:16:28;14.30;;;13.80;;
22068;SDS011;13887;57.196;-2.100;2023-01-05T07:18:55;13.80;;;13.30;;
22068;SDS011;13887;57.196;-2.100;2023-01-05T07:21:21;14.07;;;13.57;;
22068;SDS011;13887;57.196;-2.100;2023-01-05T07:23:48;14.23;;;13.73;;
22068;SDS011;13887;57.196;-2.100;2023-01-05T07:26:15;14.03;;;13.53;;
22068;SDS011;13887;57.196;-2.100;2023-01-05T07:28:42;14.10;;;13.60;;
22068;SDS011;13887;57.196;-2.100;2023-01-05T07:31:09;14.30;;;13.80;;
22068;SDS011;13887;57.196;-2.100;2023-01-05T07:33:36;14.00;;;13.50;;
22068;SDS011;13887;57.196;-2.100;2023-01-05T07:36:05;13.57;;;13.07;;
22068;SDS011;13887;57.196;-2.100;2023-01-05T07:38:33;14.13;;;13.63;;
22068;SDS011;13887;57.196;-2.100;2023-01-05T07:41:00;13.73;;;13.23;;
22068;SDS011;13887;57.196;-2.100;2023-01-05T07:43:28;13.27;;;12.80;;
22068;SDS011;13887;57.196;-2.100;2023-01-05T07:45:56;13.67;;;13.17;;
22068;SDS011;13887;57.196;-2.100;2023-01-05T07:48:23;13.80;;;13.30;;
22068;SDS011;13887;57.196;-2.100;2023-01-05T07:50:51;13.90;;;13.40;;
22068;SDS011;13887;57.196;-2.100;2023-01-05T07:53:17;13.63;;;13.13;;
22068;SDS011;13887;57.196;-2.100;2023-01-05T07:55:53;13.70;;;13.20;;
22068;SDS011;13887;57.196;-2.100;2023-01-05T07:58:21;13.60;;;13.10;;
22068;SDS011;13887;57.196;-2.100;2023-01-05T08:00:48;13.20;;;12.80;;
22068;SDS011;13887;57.196;-2.100;2023-01-05T08:03:15;13.63;;;13.13;;
22068;SDS011;13887;57.196;-2.100;2023-01-05T08:05:42;12.70;;;12.30;;
22068;SDS011;13887;57.196;-2.100;2023-01-05T08:08:10;13.77;;;13.27;;
22068;SDS011;13887;57.196;-2.100;2023-01-05T08:10:40;13.90;;;13.40;;
22068;SDS011;13887;57.196;-2.100;2023-01-05T08:13:08;13.83;;;13.33;;
22068;SDS011;13887;57.196;-2.100;2023-01-05T08:15:55;14.10;;;13.60;;
22068;SDS011;13887;57.196;-2.100;2023-01-05T08:18:22;14.30;;;13.80;;
22068;SDS011;13887;57.196;-2.100;2023-01-05T08:20:50;14.20;;;13.70;;
22068;SDS011;13887;57.196;-2.100;2023-01-05T08:23:22;14.27;;;13.77;;
22068;SDS011;13887;57.196;-2.100;2023-01-05T08:25:52;14.23;;;13.73;;
22068;SDS011;13887;57.196;-2.100;2023-01-05T08:28:21;13.97;;;13.47;;
22068;SDS011;13887;57.196;-2.100;2023-01-05T08:31:05;13.77;;;13.27;;
22068;SDS011;13887;57.196;-2.100;2023-01-05T08:33:34;14.07;;;13.57;;
22068;SDS011;13887;57.196;-2.100;2023-01-05T08:36:01;14.20;;;13.70;;
22068;SDS011;13887;57.196;-2.100;2023-01-05T08:38:34;13.97;;;13.47;;
22068;SDS011;13887;57.196;-2.100;2023-01-05T08:41:00;13.97;;;13.47;;
22068;SDS011;13887;57.196;-2.100;2023-01-05T08:43:27;14.40;;;13.90;;
22068;SDS011;13887;57.196;-2.100;2023-01-05T08:45:54;13.87;;;13.37;;
22068;SDS011;13887;57.196;-2.100;2023-01-05T08:48:21;14.20;;;13.70;;
22068;SDS011;13887;57.196;-2.100;2023-01-05T08:50:48;14.23;;;13.73;;
22068;SDS011;13887;57.196;-2.100;2023-01-05T08:53:15;14.20;;;13.70;;
22068;SDS011;13887;57.196;-2.100;2023-01-05T08:55:42;14.43;;;13.93;;
22068;SDS011;13887;57.196;-2.100;2023-01-05T08:58:08;14.30;;;13.80;;
22068;SDS011;13887;57.196;-2.100;2023-01-05T09:00:35;13.77;;;13.27;;
22068;SDS011;13887;57.196;-2.100;2023-01-05T09:03:02;13.80;;;13.30;;
22068;SDS011;13887;57.196;-2.100;2023-01-05T09:05:29;13.93;;;13.43;;
22068;SDS011;13887;57.196;-2.100;2023-01-05T09:07:57;14.80;;;14.30;;
22068;SDS011;13887;57.196;-2.100;2023-01-05T09:10:24;14.20;;;13.70;;
22068;SDS011;13887;57.196;-2.100;2023-01-05T09:12:50;14.10;;;13.60;;
22068;SDS011;13887;57.196;-2.100;2023-01-05T09:15:17;13.93;;;13.43;;
22068;SDS011;13887;57.196;-2.100;2023-01-05T09:17:44;14.00;;;13.50;;
22068;SDS011;13887;57.196;-2.100;2023-01-05T09:20:11;13.57;;;13.07;;
22068;SDS011;13887;57.196;-2.100;2023-01-05T09:22:38;13.80;;;13.30;;
22068;SDS011;13887;57.196;-2.100;2023-01-05T09:25:05;13.13;;;12.73;;
22068;SDS011;13887;57.196;-2.100;2023-01-05T09:27:32;13.30;;;12.90;;
22068;SDS011;13887;57.196;-2.100;2023-01-05T09:29:59;13.10;;;12.70;;
22068;SDS011;13887;57.196;-2.100;2023-01-05T09:32:26;13.47;;;12.97;;
22068;SDS011;13887;57.196;-2.100;2023-01-05T09:34:53;13.57;;;13.07;;
22068;SDS011;13887;57.196;-2.100;2023-01-05T09:37:20;13.07;;;12.67;;
22068;SDS011;13887;57.196;-2.100;2023-01-05T09:39:46;13.50;;;13.00;;
22068;SDS011;13887;57.196;-2.100;2023-01-05T09:42:14;13.60;;;13.10;;
22068;SDS011;13887;57.196;-2.100;2023-01-05T09:47:26;13.70;;;13.20;;
22068;SDS011;13887;57.196;-2.100;2023-01-05T09:49:57;13.70;;;13.20;;
22068;SDS011;13887;57.196;-2.100;2023-01-05T09:52:25;13.20;;;12.80;;
22068;SDS011;13887;57.196;-2.100;2023-01-05T09:54:58;13.40;;;12.90;;
22068;SDS011;13887;57.196;-2.100;2023-01-05T09:57:28;13.67;;;13.17;;
22068;SDS011;13887;57.196;-2.100;2023-01-05T09:59:58;13.70;;;13.20;;
22068;SDS011;13887;57.196;-2.100;2023-01-05T10:05:12;13.80;;;13.30;;
22068;SDS011;13887;57.196;-2.100;2023-01-05T10:07:44;13.70;;;13.20;;
22068;SDS011;13887;57.196;-2.100;2023-01-05T10:13:04;13.53;;;13.03;;
22068;SDS011;13887;57.196;-2.100;2023-01-05T10:15:51;13.40;;;12.90;;
22068;SDS011;13887;57.196;-2.100;2023-01-05T10:18:21;13.10;;;12.70;;
22068;SDS011;13887;57.196;-2.100;2023-01-05T10:26:29;14.00;;;13.50;;
22068;SDS011;13887;57.196;-2.100;2023-01-05T10:29:38;13.40;;;12.90;;
22068;SDS011;13887;57.196;-2.100;2023-01-05T10:32:24;13.20;;;12.80;;
22068;SDS011;13887;57.196;-2.100;2023-01-05T10:34:53;13.57;;;13.07;;
22068;SDS011;13887;57.196;-2.100;2023-01-05T10:45:28;13.50;;;13.00;;
22068;SDS011;13887;57.196;-2.100;2023-01-05T10:47:56;14.00;;;13.50;;
22068;SDS011;13887;57.196;-2.100;2023-01-05T10:50:35;13.97;;;13.47;;
22068;SDS011;13887;57.196;-2.100;2023-01-05T10:53:08;14.03;;;13.53;;
22068;SDS011;13887;57.196;-2.100;2023-01-05T10:56:00;14.10;;;13.60;;
22068;SDS011;13887;57.196;-2.100;2023-01-05T10:59:10;14.40;;;13.90;;
22068;SDS011;13887;57.196;-2.100;2023-01-05T11:01:45;13.87;;;13.37;;
22068;SDS011;13887;57.196;-2.100;2023-01-05T11:04:16;13.60;;;13.10;;
22068;SDS011;13887;57.196;-2.100;2023-01-05T11:07:01;13.77;;;13.27;;
22068;SDS011;13887;57.196;-2.100;2023-01-05T11:09:30;13.67;;;13.17;;
22068;SDS011;13887;57.196;-2.100;2023-01-05T11:11:57;13.80;;;13.30;;
22068;SDS011;13887;57.196;-2.100;2023-01-05T11:14:27;13.83;;;13.33;;
22068;SDS011;13887;57.196;-2.100;2023-01-05T11:16:59;13.50;;;13.00;;
22068;SDS011;13887;57.196;-2.100;2023-01-05T11:19:29;13.30;;;12.80;;
22068;SDS011;13887;57.196;-2.100;2023-01-05T11:22:00;14.00;;;13.50;;
22068;SDS011;13887;57.196;-2.100;2023-01-05T11:24:29;13.30;;;12.80;;
22068;SDS011;13887;57.196;-2.100;2023-01-05T11:27:01;12.87;;;12.47;;
22068;SDS011;13887;57.196;-2.100;2023-01-05T11:32:42;13.67;;;13.17;;
22068;SDS011;13887;57.196;-2.100;2023-01-05T11:35:20;13.80;;;13.30;;
22068;SDS011;13887;57.196;-2.100;2023-01-05T11:37:51;13.50;;;13.00;;
22068;SDS011;13887;57.196;-2.100;2023-01-05T11:40:18;12.90;;;12.50;;
22068;SDS011;13887;57.196;-2.100;2023-01-05T11:42:48;13.30;;;12.90;;
22068;SDS011;13887;57.196;-2.100;2023-01-05T11:45:19;13.57;;;13.07;;
22068;SDS011;13887;57.196;-2.100;2023-01-05T11:47:49;13.23;;;12.83;;
22068;SDS011;13887;57.196;-2.100;2023-01-05T11:50:26;13.80;;;13.30;;
22068;SDS011;13887;57.196;-2.100;2023-01-05T11:52:57;13.63;;;13.13;;
22068;SDS011;13887;57.196;-2.100;2023-01-05T12:01:11;14.30;;;13.80;;
22068;SDS011;13887;57.196;-2.100;2023-01-05T12:17:18;12.67;;;12.27;;
22068;SDS011;13887;57.196;-2.100;2023-01-05T12:20:07;13.33;;;12.93;;
22068;SDS011;13887;57.196;-2.100;2023-01-05T12:22:58;12.90;;;12.50;;
22068;SDS011;13887;57.196;-2.100;2023-01-05T12:48:27;13.20;;;12.80;;
22068;SDS011;13887;57.196;-2.100;2023-01-05T12:51:13;13.10;;;12.70;;
22068;SDS011;13887;57.196;-2.100;2023-01-05T12:56:37;13.93;;;13.43;;
22068;SDS011;13887;57.196;-2.100;2023-01-05T13:01:43;13.90;;;13.40;;
22068;SDS011;13887;57.196;-2.100;2023-01-05T13:04:40;14.00;;;13.50;;
22068;SDS011;13887;57.196;-2.100;2023-01-05T13:07:21;13.23;;;12.77;;
22068;SDS011;13887;57.196;-2.100;2023-01-05T13:09:55;12.77;;;12.37;;
22068;SDS011;13887;57.196;-2.100;2023-01-05T13:12:29;13.00;;;12.60;;
22068;SDS011;13887;57.196;-2.100;2023-01-05T13:17:41;12.23;;;11.83;;
22068;SDS011;13887;57.196;-2.100;2023-01-05T13:20:19;12.53;;;12.13;;
22068;SDS011;13887;57.196;-2.100;2023-01-05T13:22:56;12.47;;;12.07;;
22068;SDS011;13887;57.196;-2.100;2023-01-05T13:28:32;13.70;;;13.20;;
22068;SDS011;13887;57.196;-2.100;2023-01-05T13:54:18;12.80;;;12.40;;
22068;SDS011;13887;57.196;-2.100;2023-01-05T13:57:11;13.80;;;13.30;;
22068;SDS011;13887;57.196;-2.100;2023-01-05T13:59:41;13.63;;;13.13;;
22068;SDS011;13887;57.196;-2.100;2023-01-05T14:04:54;12.60;;;12.20;;
22068;SDS011;13887;57.196;-2.100;2023-01-05T14:07:22;12.73;;;12.33;;
22068;SDS011;13887;57.196;-2.100;2023-01-05T14:09:54;12.20;;;11.80;;
22068;SDS011;13887;57.196;-2.100;2023-01-05T14:12:30;12.20;;;11.80;;
22068;SDS011;13887;57.196;-2.100;2023-01-05T14:17:59;12.50;;;12.10;;
22068;SDS011;13887;57.196;-2.100;2023-01-05T14:20:35;12.90;;;12.50;;
22068;SDS011;13887;57.196;-2.100;2023-01-05T14:37:02;11.83;;;11.43;;
22068;SDS011;13887;57.196;-2.100;2023-01-05T14:39:30;11.60;;;11.20;;
22068;SDS011;13887;57.196;-2.100;2023-01-05T14:44:43;11.67;;;11.27;;
22068;SDS011;13887;57.196;-2.100;2023-01-05T14:47:16;12.10;;;11.70;;
22068;SDS011;13887;57.196;-2.100;2023-01-05T14:49:58;12.67;;;12.27;;
22068;SDS011;13887;57.196;-2.100;2023-01-05T14:55:21;12.70;;;12.30;;
22068;SDS011;13887;57.196;-2.100;2023-01-05T14:58:12;12.27;;;11.87;;
22068;SDS011;13887;57.196;-2.100;2023-01-05T15:03:33;12.07;;;11.67;;
22068;SDS011;13887;57.196;-2.100;2023-01-05T15:06:07;11.70;;;11.30;;
22068;SDS011;13887;57.196;-2.100;2023-01-05T15:19:47;12.37;;;11.97;;
22068;SDS011;13887;57.196;-2.100;2023-01-05T15:31:35;12.43;;;12.03;;
22068;SDS011;13887;57.196;-2.100;2023-01-05T15:39:29;11.97;;;11.57;;
22068;SDS011;13887;57.196;-2.100;2023-01-05T15:42:06;12.47;;;12.07;;
22068;SDS011;13887;57.196;-2.100;2023-01-05T15:44:38;12.07;;;11.67;;
22068;SDS011;13887;57.196;-2.100;2023-01-05T15:47:10;12.17;;;11.77;;
22068;SDS011;13887;57.196;-2.100;2023-01-05T15:49:37;12.03;;;11.63;;
22068;SDS011;13887;57.196;-2.100;2023-01-05T15:52:08;12.50;;;12.10;;
22068;SDS011;13887;57.196;-2.100;2023-01-05T15:54:55;12.63;;;12.23;;
22068;SDS011;13887;57.196;-2.100;2023-01-05T15:57:23;13.00;;;12.60;;
22068;SDS011;13887;57.196;-2.100;2023-01-05T15:59:50;12.60;;;12.20;;
22068;SDS011;13887;57.196;-2.100;2023-01-05T16:02:21;13.03;;;12.63;;
22068;SDS011;13887;57.196;-2.100;2023-01-05T16:07:41;12.90;;;12.50;;
22068;SDS011;13887;57.196;-2.100;2023-01-05T16:10:18;13.00;;;12.60;;
22068;SDS011;13887;57.196;-2.100;2023-01-05T16:12:49;12.70;;;12.30;;
22068;SDS011;13887;57.196;-2.100;2023-01-05T16:15:20;12.63;;;12.23;;
22068;SDS011;13887;57.196;-2.100;2023-01-05T16:17:49;12.80;;;12.40;;
22068;SDS011;13887;57.196;-2.100;2023-01-05T16:20:20;12.73;;;12.33;;
22068;SDS011;13887;57.196;-2.100;2023-01-05T16:23:00;12.03;;;11.63;;
22068;SDS011;13887;57.196;-2.100;2023-01-05T16:25:53;12.30;;;11.90;;
22068;SDS011;13887;57.196;-2.100;2023-01-05T16:28:23;13.07;;;12.67;;
22068;SDS011;13887;57.196;-2.100;2023-01-05T16:30:51;12.80;;;12.40;;
22068;SDS011;13887;57.196;-2.100;2023-01-05T16:33:32;12.70;;;12.30;;
22068;SDS011;13887;57.196;-2.100;2023-01-05T16:36:34;12.70;;;12.30;;
22068;SDS011;13887;57.196;-2.100;2023-01-05T16:39:10;12.70;;;12.30;;
22068;SDS011;13887;57.196;-2.100;2023-01-05T16:41:47;12.60;;;12.20;;
22068;SDS011;13887;57.196;-2.100;2023-01-05T16:44:33;11.90;;;11.50;;
22068;SDS011;13887;57.196;-2.100;2023-01-05T16:47:03;13.13;;;12.73;;
22068;SDS011;13887;57.196;-2.100;2023-01-05T16:49:34;13.10;;;12.70;;
22068;SDS011;13887;57.196;-2.100;2023-01-05T16:52:18;12.70;;;12.30;;
22068;SDS011;13887;57.196;-2.100;2023-01-05T16:55:19;13.03;;;12.63;;
22068;SDS011;13887;57.196;-2.100;2023-01-05T16:57:56;12.97;;;12.57;;
22068;SDS011;13887;57.196;-2.100;2023-01-05T17:02:51;13.10;;;12.70;;
22068;SDS011;13887;57.196;-2.100;2023-01-05T17:05:27;13.07;;;12.67;;
22068;SDS011;13887;57.196;-2.100;2023-01-05T17:10:45;12.90;;;12.50;;
22068;SDS011;13887;57.196;-2.100;2023-01-05T17:13:16;13.07;;;12.67;;
22068;SDS011;13887;57.196;-2.100;2023-01-05T17:15:47;12.03;;;11.63;;
22068;SDS011;13887;57.196;-2.100;2023-01-05T17:18:17;12.67;;;12.27;;
22068;SDS011;13887;57.196;-2.100;2023-01-05T17:20:49;12.67;;;12.27;;
22068;SDS011;13887;57.196;-2.100;2023-01-05T17:25:49;12.77;;;12.37;;
22068;SDS011;13887;57.196;-2.100;2023-01-05T17:28:18;13.33;;;12.93;;
22068;SDS011;13887;57.196;-2.100;2023-01-05T17:30:47;12.80;;;12.40;;
22068;SDS011;13887;57.196;-2.100;2023-01-05T17:33:15;12.63;;;12.23;;
22068;SDS011;13887;57.196;-2.100;2023-01-05T17:35:43;13.20;;;12.80;;
22068;SDS011;13887;57.196;-2.100;2023-01-05T17:38:16;14.10;;;13.60;;
22068;SDS011;13887;57.196;-2.100;2023-01-05T17:40:43;12.70;;;12.30;;
22068;SDS011;13887;57.196;-2.100;2023-01-05T17:43:10;12.40;;;12.00;;
22068;SDS011;13887;57.196;-2.100;2023-01-05T17:45:40;12.67;;;12.27;;